Аэропорт: Запорожье. Запорожье

ICAO: UKDE

METAR:
2018/05/20 23:00
UKDE 202300Z 30004MPS 270V330 4100 BR BKN009 13/12 Q1015 R02/210370 NOSIG
METAR:
2018/03/23 00:09
TAF 
      AMD TAF 
      AMD UKDE 232202Z 2200/2409 03006MPS 2100 -SHSN BR BKN010 BKN020CB TXM02/2322Z TNM04/2403Z 
      TEMPO 2322/2324 05007G12MPS 
      TEMPO 2322/2324 0300 +SHSN VV002 PROB40 
      TEMPO 2400/2406 0500 FZFG VV002